createdAt,value
2023-01-21T00:00:11.105Z,0.91
2023-01-21T00:02:37.941Z,0.88
2023-01-21T00:05:05.033Z,0.82
2023-01-21T00:07:31.698Z,0.82
2023-01-21T00:09:58.613Z,0.76
2023-01-21T00:12:25.404Z,0.82
2023-01-21T00:14:52.138Z,0.84
2023-01-21T00:17:18.839Z,0.80
2023-01-21T00:19:45.533Z,0.92
2023-01-21T00:22:12.387Z,0.79
2023-01-21T00:24:39.156Z,0.83
2023-01-21T00:27:05.951Z,0.79
2023-01-21T00:29:32.710Z,0.89
2023-01-21T00:31:59.524Z,0.88
2023-01-21T00:34:26.230Z,0.97
2023-01-21T00:36:55.096Z,0.83
2023-01-21T00:39:23.081Z,0.84
2023-01-21T00:41:50.902Z,0.94
2023-01-21T00:44:19.291Z,0.91
2023-01-21T00:46:46.274Z,0.94
2023-01-21T00:49:13.077Z,1.00
2023-01-21T00:51:39.833Z,0.90
2023-01-21T00:54:06.567Z,0.90
2023-01-21T00:56:33.363Z,0.96
2023-01-21T00:59:00.272Z,0.87
2023-01-21T01:01:28.085Z,0.80
2023-01-21T01:03:54.927Z,0.90
2023-01-21T01:06:23.403Z,0.90
2023-01-21T01:08:50.910Z,0.93
2023-01-21T01:11:18.506Z,0.90
2023-01-21T01:13:45.471Z,0.92
2023-01-21T01:16:14.492Z,0.94
2023-01-21T01:18:41.366Z,0.93
2023-01-21T01:21:15.242Z,0.89
2023-01-21T01:23:42.507Z,0.93
2023-01-21T01:26:12.976Z,0.98
2023-01-21T01:28:39.912Z,0.86
2023-01-21T01:31:09.064Z,0.95
2023-01-21T01:33:36.175Z,1.03
2023-01-21T01:36:05.049Z,0.96
2023-01-21T01:38:32.120Z,1.06
2023-01-21T01:40:59.235Z,0.95
2023-01-21T01:43:47.639Z,0.95
2023-01-21T01:46:14.987Z,1.06
2023-01-21T01:48:44.641Z,1.06
2023-01-21T01:51:13.636Z,1.02
2023-01-21T01:53:42.959Z,1.11
2023-01-21T01:56:09.910Z,0.98
2023-01-21T01:58:37.900Z,1.04
2023-01-21T02:01:04.756Z,1.01
2023-01-21T02:03:46.057Z,0.94
2023-01-21T02:06:17.840Z,1.08
2023-01-21T02:08:47.427Z,1.11
2023-01-21T02:11:19.115Z,1.03
2023-01-21T02:13:57.734Z,1.05
2023-01-21T02:16:59.433Z,1.05
2023-01-21T02:19:26.072Z,1.23
2023-01-21T02:22:03.789Z,1.18
2023-01-21T02:24:50.012Z,1.07
2023-01-21T02:27:30.706Z,1.00
2023-01-21T02:30:22.286Z,1.08
2023-01-21T02:33:07.076Z,1.08
2023-01-21T02:36:25.818Z,0.80
2023-01-21T02:39:13.101Z,0.91
2023-01-21T02:41:39.750Z,1.01
2023-01-21T02:44:24.972Z,1.02
2023-01-21T02:47:16.756Z,1.05
2023-01-21T02:49:58.450Z,1.04
2023-01-21T02:52:26.267Z,1.07
2023-01-21T02:55:00.044Z,1.04
2023-01-21T02:57:34.170Z,1.06
2023-01-21T03:00:04.357Z,1.13
2023-01-21T03:02:44.072Z,1.06
2023-01-21T03:05:28.950Z,0.99
2023-01-21T03:08:11.455Z,1.06
2023-01-21T03:10:50.514Z,1.05
2023-01-21T03:14:00.631Z,0.95
2023-01-21T03:16:51.349Z,1.07
2023-01-21T03:19:21.750Z,1.02
2023-01-21T03:21:51.114Z,1.12
2023-01-21T03:24:19.322Z,1.04
2023-01-21T03:26:49.664Z,1.00
2023-01-21T03:29:22.113Z,1.04
2023-01-21T03:31:53.763Z,1.10
2023-01-21T03:34:22.687Z,1.19
2023-01-21T03:36:55.413Z,0.95
2023-01-21T03:39:46.809Z,0.94
2023-01-21T03:42:14.579Z,1.09
2023-01-21T03:44:42.132Z,1.17
2023-01-21T03:47:08.747Z,1.10
2023-01-21T03:49:39.415Z,1.23
2023-01-21T03:52:08.873Z,1.16
2023-01-21T03:54:38.510Z,1.02
2023-01-21T03:57:05.652Z,1.19
2023-01-21T03:59:33.161Z,1.16
2023-01-21T04:01:59.839Z,1.09
2023-01-21T04:04:26.540Z,1.28
2023-01-21T04:06:53.238Z,1.12
2023-01-21T04:09:20.052Z,1.11
2023-01-21T04:11:46.786Z,1.17
2023-01-21T04:14:13.564Z,1.15
2023-01-21T04:16:40.273Z,1.20
2023-01-21T04:19:07.091Z,1.31
2023-01-21T04:21:33.788Z,1.36
2023-01-21T04:24:00.566Z,1.23
2023-01-21T04:26:27.242Z,1.31
2023-01-21T04:28:53.955Z,1.37
2023-01-21T04:31:20.740Z,1.12
2023-01-21T04:33:47.460Z,1.14
2023-01-21T04:36:14.207Z,1.35
2023-01-21T04:38:41.135Z,1.27
2023-01-21T04:41:07.838Z,1.19
2023-01-21T04:43:34.599Z,1.29
2023-01-21T04:46:01.482Z,1.22
2023-01-21T04:48:28.282Z,1.20
2023-01-21T04:50:55.024Z,1.33
2023-01-21T04:53:21.762Z,1.37
2023-01-21T04:55:50.972Z,1.40
2023-01-21T04:58:17.964Z,1.28
2023-01-21T05:00:44.717Z,1.20
2023-01-21T05:03:11.422Z,1.26
2023-01-21T05:05:38.276Z,1.37
2023-01-21T05:08:05.181Z,1.28
2023-01-21T05:10:31.944Z,1.33
2023-01-21T05:12:59.512Z,1.28
2023-01-21T05:15:30.171Z,1.37
2023-01-21T05:17:56.921Z,1.29
2023-01-21T05:20:23.738Z,1.30
2023-01-21T05:22:50.518Z,1.22
2023-01-21T05:25:17.316Z,1.25
2023-01-21T05:27:43.982Z,1.25
2023-01-21T05:30:11.204Z,1.31
2023-01-21T05:32:37.954Z,1.36
2023-01-21T05:35:05.453Z,1.41
2023-01-21T05:37:32.267Z,1.35
2023-01-21T05:39:59.025Z,1.52
2023-01-21T05:42:25.914Z,1.40
2023-01-21T05:44:52.786Z,1.29
2023-01-21T05:47:19.497Z,1.30
2023-01-21T05:49:46.162Z,1.34
2023-01-21T05:52:13.222Z,1.38
2023-01-21T05:54:52.459Z,1.23
2023-01-21T05:57:22.855Z,1.32
2023-01-21T05:59:49.640Z,1.29
2023-01-21T06:02:16.427Z,1.32
2023-01-21T06:04:43.140Z,1.38
2023-01-21T06:07:09.837Z,1.37
2023-01-21T06:09:36.532Z,1.37
2023-01-21T06:12:03.246Z,1.42
2023-01-21T06:14:30.013Z,1.40
2023-01-21T06:16:56.691Z,1.37
2023-01-21T06:19:23.456Z,1.46
2023-01-21T06:21:51.895Z,1.40
2023-01-21T06:24:18.642Z,1.30
2023-01-21T06:26:45.469Z,1.36
2023-01-21T06:29:12.197Z,1.42
2023-01-21T06:31:39.619Z,1.33
2023-01-21T06:34:06.580Z,1.30
2023-01-21T06:36:33.244Z,1.26
2023-01-21T06:38:59.918Z,1.28
2023-01-21T06:41:26.685Z,1.32
2023-01-21T06:43:53.381Z,1.42
2023-01-21T06:46:20.191Z,1.41
2023-01-21T06:48:47.078Z,1.28
2023-01-21T06:51:13.812Z,1.20
2023-01-21T06:53:41.281Z,1.24
2023-01-21T06:56:08.194Z,1.28
2023-01-21T06:58:34.910Z,1.26
2023-01-21T07:01:01.678Z,1.38
2023-01-21T07:03:29.391Z,1.40
2023-01-21T07:05:56.074Z,1.30
2023-01-21T07:08:22.816Z,1.30
2023-01-21T07:10:49.588Z,1.32
2023-01-21T07:13:16.347Z,1.36
2023-01-21T07:15:43.135Z,1.40
2023-01-21T07:18:09.894Z,1.36
2023-01-21T07:20:37.687Z,1.47
2023-01-21T07:23:05.072Z,1.50
2023-01-21T07:25:32.503Z,1.48
2023-01-21T07:27:59.576Z,1.33
2023-01-21T07:30:26.428Z,1.38
2023-01-21T07:32:53.220Z,1.49
2023-01-21T07:35:20.272Z,1.36
2023-01-21T07:37:47.091Z,1.35
2023-01-21T07:40:14.016Z,1.33
2023-01-21T07:42:40.740Z,1.35
2023-01-21T07:45:07.902Z,1.47
2023-01-21T07:47:34.668Z,1.50
2023-01-21T07:50:05.065Z,1.50
2023-01-21T07:52:32.772Z,1.48
2023-01-21T07:54:59.456Z,1.42
2023-01-21T07:57:26.266Z,1.47
2023-01-21T07:59:53.096Z,1.56
2023-01-21T08:02:19.880Z,1.44
2023-01-21T08:04:46.690Z,1.53
2023-01-21T08:07:13.421Z,1.64
2023-01-21T08:09:40.791Z,1.66
2023-01-21T08:12:08.537Z,1.62
2023-01-21T08:14:35.398Z,1.60
2023-01-21T08:17:02.419Z,1.65
2023-01-21T08:19:29.207Z,1.86
2023-01-21T08:21:55.980Z,1.71
2023-01-21T08:24:22.795Z,1.60
2023-01-21T08:26:49.499Z,1.56
2023-01-21T08:29:16.420Z,1.78
2023-01-21T08:31:43.229Z,1.72
2023-01-21T08:34:12.707Z,1.76
2023-01-21T08:36:39.862Z,1.64
2023-01-21T08:39:06.583Z,1.73
2023-01-21T08:41:33.960Z,1.95
2023-01-21T08:44:00.801Z,1.79
2023-01-21T08:46:27.726Z,1.85
2023-01-21T08:48:54.547Z,1.96
2023-01-21T08:51:21.325Z,1.99
2023-01-21T08:53:50.109Z,1.93
2023-01-21T08:56:17.427Z,1.96
2023-01-21T08:58:44.819Z,2.12
2023-01-21T09:01:13.817Z,2.21
2023-01-21T09:03:40.779Z,2.27
2023-01-21T09:06:08.508Z,2.14
2023-01-21T09:08:36.580Z,2.30
2023-01-21T09:11:06.957Z,2.34
2023-01-21T09:13:37.466Z,2.32
2023-01-21T09:16:09.811Z,2.31
2023-01-21T09:18:37.692Z,2.36
2023-01-21T09:21:05.996Z,2.42
2023-01-21T09:23:34.769Z,2.70
2023-01-21T09:26:03.715Z,2.75
2023-01-21T09:28:32.005Z,2.63
2023-01-21T09:31:00.816Z,2.71
2023-01-21T09:33:32.244Z,2.69
2023-01-21T09:36:01.340Z,2.59
2023-01-21T09:38:29.109Z,2.82
2023-01-21T09:41:18.639Z,2.61
2023-01-21T09:43:51.358Z,2.63
2023-01-21T09:46:43.250Z,2.41
2023-01-21T09:49:17.619Z,2.48
2023-01-21T09:51:52.506Z,2.48
2023-01-21T09:54:31.341Z,2.59
2023-01-21T09:57:09.710Z,2.38
2023-01-21T09:59:50.379Z,2.24
2023-01-21T10:02:53.455Z,2.31
2023-01-21T10:05:35.585Z,2.44
2023-01-21T10:08:32.562Z,2.33
2023-01-21T10:11:22.183Z,2.34
2023-01-21T10:14:22.855Z,2.50
2023-01-21T10:17:07.319Z,2.81
2023-01-21T10:19:40.348Z,2.75
2023-01-21T10:22:17.514Z,2.86
2023-01-21T10:24:52.659Z,2.73
2023-01-21T10:27:22.353Z,2.59
2023-01-21T10:29:54.000Z,2.47
2023-01-21T10:32:27.507Z,2.60
2023-01-21T10:34:57.218Z,2.71
2023-01-21T10:37:41.510Z,2.76
2023-01-21T10:40:18.873Z,2.80
2023-01-21T10:43:19.845Z,2.62
2023-01-21T10:45:58.772Z,2.78
2023-01-21T10:48:38.863Z,2.64
2023-01-21T10:51:30.340Z,2.88
2023-01-21T10:54:07.070Z,2.64
2023-01-21T10:56:45.761Z,2.75
2023-01-21T10:59:19.132Z,2.78
2023-01-21T11:01:47.770Z,2.54
2023-01-21T11:04:23.526Z,2.60
2023-01-21T11:07:01.545Z,2.70
2023-01-21T11:09:41.939Z,2.85
2023-01-21T11:12:14.060Z,2.77
2023-01-21T11:14:40.909Z,2.90
2023-01-21T11:17:07.992Z,3.08
2023-01-21T11:19:34.771Z,3.02
2023-01-21T11:22:01.500Z,2.98
2023-01-21T11:24:29.893Z,2.94
2023-01-21T11:26:59.463Z,2.89
2023-01-21T11:29:26.933Z,3.06
2023-01-21T11:32:03.892Z,3.09
2023-01-21T11:34:31.338Z,3.09
2023-01-21T11:37:03.059Z,3.12
2023-01-21T11:39:35.803Z,3.00
2023-01-21T11:42:17.300Z,3.01
2023-01-21T11:45:06.851Z,3.22
2023-01-21T11:47:48.090Z,3.10
2023-01-21T11:50:35.906Z,3.00
2023-01-21T11:53:12.387Z,3.21
2023-01-21T11:55:49.904Z,3.34
2023-01-21T11:58:18.982Z,3.28
2023-01-21T12:00:48.138Z,3.33
2023-01-21T12:03:26.076Z,3.40
2023-01-21T12:05:54.133Z,3.54
2023-01-21T12:08:31.405Z,3.53
2023-01-21T12:11:04.089Z,3.38
2023-01-21T12:13:46.095Z,3.34
2023-01-21T12:16:22.215Z,3.40
2023-01-21T12:19:03.082Z,3.55
2023-01-21T12:21:40.445Z,3.67
2023-01-21T12:24:31.535Z,3.63
2023-01-21T12:27:04.906Z,3.70
2023-01-21T12:29:50.258Z,3.20
2023-01-21T12:32:31.347Z,3.32
2023-01-21T12:35:13.641Z,3.25
2023-01-21T12:37:49.719Z,3.40
2023-01-21T12:40:34.804Z,3.46
2023-01-21T12:43:08.415Z,3.57
2023-01-21T12:45:53.043Z,3.44
2023-01-21T12:48:37.817Z,3.57
2023-01-21T12:51:18.952Z,3.61
2023-01-21T12:53:55.354Z,3.69
2023-01-21T12:56:53.397Z,3.66
2023-01-21T12:59:46.613Z,3.56
2023-01-21T13:02:38.847Z,3.33
2023-01-21T13:05:18.003Z,3.54
2023-01-21T13:08:09.650Z,3.68
2023-01-21T13:10:40.956Z,3.50
2023-01-21T13:13:45.660Z,3.44
2023-01-21T13:16:13.003Z,3.58
2023-01-21T13:18:43.810Z,3.57
2023-01-21T13:21:31.926Z,3.47
2023-01-21T13:24:22.562Z,3.19
2023-01-21T13:27:20.523Z,3.29
2023-01-21T13:30:19.572Z,3.44
2023-01-21T13:32:54.351Z,3.53
2023-01-21T13:35:26.868Z,3.50
2023-01-21T13:38:23.288Z,3.45
2023-01-21T13:40:53.031Z,3.43
2023-01-21T13:43:54.821Z,3.37
2023-01-21T13:46:42.156Z,3.17
2023-01-21T13:49:08.874Z,3.30
2023-01-21T13:51:50.384Z,3.24
2023-01-21T13:54:38.370Z,3.28
2023-01-21T13:57:32.497Z,3.34
2023-01-21T14:00:12.830Z,3.27
2023-01-21T14:02:52.390Z,3.22
2023-01-21T14:05:19.130Z,3.18
2023-01-21T14:08:06.267Z,3.12
2023-01-21T14:10:43.527Z,3.17
2023-01-21T14:13:51.092Z,3.23
2023-01-21T14:16:52.633Z,3.19
2023-01-21T14:19:33.985Z,3.28
2023-01-21T14:22:45.663Z,3.22
2023-01-21T14:25:18.533Z,3.10
2023-01-21T14:28:07.189Z,3.02
2023-01-21T14:31:13.380Z,3.09
2023-01-21T14:34:17.845Z,3.09
2023-01-21T14:37:08.871Z,3.16
2023-01-21T14:39:41.758Z,3.25
2023-01-21T14:42:14.844Z,3.20
2023-01-21T14:44:53.715Z,3.15
2023-01-21T14:47:29.585Z,3.06
2023-01-21T14:49:58.281Z,3.07
2023-01-21T14:52:43.823Z,3.00
2023-01-21T14:55:37.107Z,2.94
2023-01-21T14:58:04.092Z,3.05
2023-01-21T15:00:37.867Z,3.00
2023-01-21T15:03:16.681Z,3.04
2023-01-21T15:05:51.831Z,3.06
2023-01-21T15:08:21.289Z,2.98
2023-01-21T15:11:02.327Z,2.97
2023-01-21T15:13:35.594Z,2.97
2023-01-21T15:16:24.007Z,2.93
2023-01-21T15:19:21.035Z,2.79
2023-01-21T15:21:59.934Z,2.89
2023-01-21T15:24:31.659Z,2.96
2023-01-21T15:27:19.662Z,2.87
2023-01-21T15:29:46.362Z,2.75
2023-01-21T15:32:23.006Z,2.73
2023-01-21T15:34:54.322Z,2.83
2023-01-21T15:37:23.527Z,2.85
2023-01-21T15:39:54.114Z,2.86
2023-01-21T15:42:34.855Z,2.85
2023-01-21T15:45:30.348Z,2.84
2023-01-21T15:48:12.391Z,2.90
2023-01-21T15:50:51.187Z,2.96
2023-01-21T15:53:34.313Z,2.97
2023-01-21T15:56:19.651Z,2.89
2023-01-21T15:59:01.131Z,2.96
2023-01-21T16:01:38.903Z,2.85
2023-01-21T16:04:35.480Z,2.81
2023-01-21T16:07:02.200Z,2.85
2023-01-21T16:10:10.559Z,2.75
2023-01-21T16:12:55.314Z,2.77
2023-01-21T16:15:35.796Z,2.78
2023-01-21T16:18:32.923Z,2.86
2023-01-21T16:21:03.128Z,2.83
2023-01-21T16:23:35.538Z,2.70
2023-01-21T16:26:03.033Z,2.74
2023-01-21T16:28:44.240Z,2.71
2023-01-21T16:31:11.292Z,2.81
2023-01-21T16:33:38.237Z,2.87
2023-01-21T16:36:09.452Z,2.81
2023-01-21T16:38:37.725Z,2.79
2023-01-21T16:41:07.428Z,2.85
2023-01-21T16:43:59.207Z,2.69
2023-01-21T16:46:34.736Z,2.82
2023-01-21T16:49:04.804Z,2.87
2023-01-21T16:51:37.093Z,2.94
2023-01-21T16:54:46.625Z,2.94
2023-01-21T16:57:15.974Z,3.07
2023-01-21T16:59:45.695Z,3.12
2023-01-21T17:02:31.912Z,3.12
2023-01-21T17:05:04.723Z,3.24
2023-01-21T17:07:43.095Z,3.10
2023-01-21T17:10:19.351Z,2.92
2023-01-21T17:12:59.299Z,2.96
2023-01-21T17:15:38.536Z,2.90
2023-01-21T17:18:10.221Z,2.93
2023-01-21T17:20:42.182Z,3.00
2023-01-21T17:23:25.829Z,2.99
2023-01-21T17:26:03.855Z,2.66
2023-01-21T17:28:57.792Z,2.82
2023-01-21T17:31:24.495Z,2.67
2023-01-21T17:34:15.453Z,2.74
2023-01-21T17:36:44.167Z,2.89
2023-01-21T17:39:12.009Z,2.97
2023-01-21T17:41:45.446Z,3.00
2023-01-21T17:44:24.487Z,2.97
2023-01-21T17:46:54.210Z,3.03
2023-01-21T17:49:24.193Z,3.05
2023-01-21T17:51:53.282Z,3.04
2023-01-21T17:54:29.900Z,3.06
2023-01-21T17:56:58.597Z,2.88
2023-01-21T17:59:26.517Z,2.82
2023-01-21T18:01:53.626Z,2.90
2023-01-21T18:04:20.749Z,2.83
2023-01-21T18:06:47.690Z,2.82
2023-01-21T18:09:19.698Z,2.78
2023-01-21T18:11:47.837Z,2.90
2023-01-21T18:14:18.090Z,2.92
2023-01-21T18:16:46.086Z,2.81
2023-01-21T18:19:28.737Z,2.78
2023-01-21T18:21:56.023Z,2.90
2023-01-21T18:24:23.068Z,2.93
2023-01-21T18:26:49.989Z,2.91
2023-01-21T18:29:18.297Z,2.96
2023-01-21T18:31:46.004Z,3.06
2023-01-21T18:34:12.922Z,3.06
2023-01-21T18:36:41.342Z,3.01
2023-01-21T18:39:17.087Z,2.92
2023-01-21T18:41:44.423Z,3.00
2023-01-21T18:44:11.203Z,3.02
2023-01-21T18:46:43.379Z,3.09
2023-01-21T18:49:17.976Z,3.05
2023-01-21T18:51:45.545Z,3.05
2023-01-21T18:54:14.633Z,3.07
2023-01-21T18:56:44.461Z,3.14
2023-01-21T18:59:19.227Z,3.07
2023-01-21T19:01:46.518Z,3.10
2023-01-21T19:04:15.981Z,3.13
2023-01-21T19:06:43.851Z,3.21
2023-01-21T19:09:24.678Z,3.22
2023-01-21T19:11:52.039Z,3.24
2023-01-21T19:14:18.888Z,3.26
2023-01-21T19:16:46.397Z,3.24
2023-01-21T19:19:15.933Z,3.25
2023-01-21T19:21:43.160Z,3.28
2023-01-21T19:24:12.036Z,3.25
2023-01-21T19:26:39.277Z,3.06
2023-01-21T19:29:13.417Z,2.93
2023-01-21T19:31:40.337Z,3.01
2023-01-21T19:34:08.401Z,3.04
2023-01-21T19:36:35.232Z,3.14
2023-01-21T19:39:01.999Z,3.16
2023-01-21T19:41:28.674Z,3.20
2023-01-21T19:43:56.386Z,3.22
2023-01-21T19:46:23.993Z,3.17
2023-01-21T19:48:53.531Z,3.19
2023-01-21T19:51:20.419Z,3.17
2023-01-21T19:53:49.800Z,3.10
2023-01-21T19:56:24.276Z,2.97
2023-01-21T19:58:51.731Z,3.01
2023-01-21T20:01:18.577Z,2.97
2023-01-21T20:03:58.681Z,2.87
2023-01-21T20:06:27.629Z,2.64
2023-01-21T20:08:54.467Z,2.71
2023-01-21T20:11:22.055Z,2.61
2023-01-21T20:13:48.946Z,2.72
2023-01-21T20:16:18.028Z,2.70
2023-01-21T20:18:46.249Z,2.57
2023-01-21T20:21:13.259Z,2.63
2023-01-21T20:23:40.583Z,2.77
2023-01-21T20:26:12.521Z,2.77
2023-01-21T20:28:44.398Z,2.57
2023-01-21T20:31:12.633Z,2.44
2023-01-21T20:33:39.549Z,2.48
2023-01-21T20:36:13.401Z,2.51
2023-01-21T20:38:42.164Z,2.63
2023-01-21T20:41:09.720Z,2.59
2023-01-21T20:43:36.410Z,2.71
2023-01-21T20:46:07.307Z,2.76
2023-01-21T20:48:40.572Z,2.71
2023-01-21T20:51:07.567Z,2.48
2023-01-21T20:53:34.610Z,2.80
2023-01-21T20:56:23.246Z,2.91
2023-01-21T20:58:50.441Z,2.92
2023-01-21T21:01:20.200Z,2.75
2023-01-21T21:03:48.101Z,2.75
2023-01-21T21:06:19.227Z,2.83
2023-01-21T21:08:47.143Z,2.95
2023-01-21T21:11:18.139Z,2.92
2023-01-21T21:13:48.299Z,2.98
2023-01-21T21:16:21.065Z,2.90
2023-01-21T21:18:48.468Z,2.99
2023-01-21T21:21:16.111Z,3.04
2023-01-21T21:23:46.637Z,3.10
2023-01-21T21:26:24.125Z,3.14
2023-01-21T21:28:54.751Z,3.21
2023-01-21T21:31:22.346Z,3.17
2023-01-21T21:33:49.173Z,3.20
2023-01-21T21:36:21.100Z,3.07
2023-01-21T21:38:49.069Z,3.00
2023-01-21T21:41:44.289Z,2.86
2023-01-21T21:44:11.769Z,2.89
2023-01-21T21:46:59.056Z,2.89
2023-01-21T21:49:26.456Z,2.95
2023-01-21T21:51:53.508Z,3.00
2023-01-21T21:54:23.782Z,3.09
2023-01-21T21:56:50.704Z,3.02
2023-01-21T21:59:17.836Z,3.04
2023-01-21T22:01:45.084Z,3.12
2023-01-21T22:04:12.018Z,3.14
2023-01-21T22:06:38.879Z,3.03
2023-01-21T22:09:06.252Z,2.88
2023-01-21T22:11:33.130Z,2.88
2023-01-21T22:14:04.098Z,2.94
2023-01-21T22:16:33.258Z,3.03
2023-01-21T22:19:00.929Z,3.13
2023-01-21T22:21:31.972Z,3.21
2023-01-21T22:24:00.851Z,3.28
2023-01-21T22:26:29.931Z,3.34
2023-01-21T22:28:57.066Z,3.37
2023-01-21T22:31:29.849Z,3.40
2023-01-21T22:33:58.267Z,3.45
2023-01-21T22:36:27.700Z,3.48
2023-01-21T22:38:54.453Z,3.50
2023-01-21T22:41:23.104Z,3.49
2023-01-21T22:43:50.741Z,3.51
2023-01-21T22:46:23.449Z,3.49
2023-01-21T22:48:50.716Z,3.52
2023-01-21T22:51:19.336Z,3.34
2023-01-21T22:53:46.396Z,3.27
2023-01-21T22:56:17.570Z,3.25
2023-01-21T22:58:46.932Z,3.21
2023-01-21T23:01:29.328Z,3.11
2023-01-21T23:03:56.124Z,3.04
2023-01-21T23:06:22.868Z,3.04
2023-01-21T23:08:50.248Z,2.95
2023-01-21T23:11:18.745Z,2.93
2023-01-21T23:13:46.696Z,2.98
2023-01-21T23:16:19.074Z,2.98
2023-01-21T23:18:46.121Z,2.93
2023-01-21T23:21:20.194Z,2.91
2023-01-21T23:23:47.420Z,2.78
2023-01-21T23:26:14.507Z,2.72
2023-01-21T23:28:41.696Z,2.74
2023-01-21T23:31:12.965Z,2.57
2023-01-21T23:33:41.816Z,2.38
2023-01-21T23:36:11.182Z,2.43
2023-01-21T23:38:37.942Z,2.39
2023-01-21T23:41:08.986Z,2.47
2023-01-21T23:43:38.902Z,2.58
2023-01-21T23:46:08.302Z,2.72
2023-01-21T23:48:35.063Z,2.82
2023-01-21T23:51:06.138Z,2.93
2023-01-21T23:53:35.634Z,3.03
2023-01-21T23:56:06.547Z,3.08
2023-01-21T23:58:36.003Z,3.15
